Time;durP1;ratioP1;P1;durP2;ratioP2;P2;SDS_P1;SDS_P2;PMS_P1;PMS_P2;Temp;Humidity;BMP_temperature;BMP_pressure;BME280_temperature;BME280_humidity;BME280_pressure;Samples;Min_cycle;Max_cycle;Signal;HPM_P1;HPM_P2
2021/07/12 00:00:35;;;;;;;0.10;0.10;;;;;;;17.71;83.02;100987.03;5050165;28;20049;-87
2021/07/12 00:03:06;;;;;;;0.20;0.20;;;;;;;17.92;81.33;100970.72;5036840;28;20068;-86
2021/07/12 00:05:41;;;;;;;0.20;0.20;;;;;;;17.74;83.81;100991.88;5043921;28;20048;-88
2021/07/12 00:08:14;;;;;;;0.10;0.10;;;;;;;17.62;83.42;100981.53;5020884;28;20292;-87
2021/07/12 00:10:42;;;;;;;0.10;0.10;;;;;;;17.62;83.55;100981.53;5049934;28;20048;-88
2021/07/12 00:13:16;;;;;;;0.10;0.10;;;;;;;17.66;83.02;100976.16;5045951;28;20089;-87
2021/07/12 00:15:52;;;;;;;0.10;0.10;;;;;;;17.70;83.50;100974.41;5030978;28;20056;-88
2021/07/12 00:18:23;;;;;;;0.20;0.20;;;;;;;17.84;82.10;100986.09;5041656;28;20060;-88
2021/07/12 00:20:56;;;;;;;0.10;0.10;;;;;;;17.67;82.90;100981.34;5033674;28;20529;-87
2021/07/12 00:23:29;;;;;;;0.10;0.10;;;;;;;17.68;82.68;100988.47;5050685;28;20056;-88
2021/07/12 00:26:03;;;;;;;0.10;0.10;;;;;;;17.72;82.60;100974.06;5032894;28;20757;-89
2021/07/12 00:28:36;;;;;;;0.17;0.17;;;;;;;17.52;83.69;100970.78;5041071;28;20038;-89
2021/07/12 00:31:10;;;;;;;0.10;0.10;;;;;;;17.77;82.45;100977.50;5019684;28;20056;-84
2021/07/12 00:33:40;;;;;;;0.10;0.10;;;;;;;17.55;82.89;100969.34;5024992;28;20509;-87
2021/07/12 00:36:14;;;;;;;0.15;0.15;;;;;;;17.53;83.38;100963.38;5051623;28;20044;-88
2021/07/12 00:38:48;;;;;;;0.10;0.10;;;;;;;17.67;82.72;100964.03;5044860;28;20604;-88
2021/07/12 00:41:22;;;;;;;0.10;0.10;;;;;;;17.49;83.86;100963.97;5027620;28;20497;-88
2021/07/12 00:43:55;;;;;;;0.20;0.20;;;;;;;17.39;83.97;100963.50;5051937;28;20484;-88
2021/07/12 00:46:31;;;;;;;0.20;0.20;;;;;;;17.37;83.64;100963.78;5050082;28;20048;-87
2021/07/12 00:49:01;;;;;;;0.10;0.10;;;;;;;17.47;83.33;100959.97;5051560;28;20053;-85
2021/07/12 00:51:35;;;;;;;0.10;0.10;;;;;;;17.48;83.11;100961.56;5048379;28;20060;-88
2021/07/12 00:54:09;;;;;;;0.10;0.10;;;;;;;17.42;83.93;100962.84;5034004;28;20068;-87
2021/07/12 00:56:44;;;;;;;0.10;0.10;;;;;;;17.39;84.02;100956.03;5025111;28;20054;-88
2021/07/12 00:59:18;;;;;;;0.15;0.15;;;;;;;17.42;83.85;100958.16;5022616;28;20045;-89
2021/07/12 01:01:46;;;;;;;0.10;0.10;;;;;;;17.31;84.64;100965.88;5030057;28;20061;-88
2021/07/12 01:04:22;;;;;;;0.10;0.10;;;;;;;17.20;84.95;100961.81;5047254;28;20041;-86
2021/07/12 01:06:55;;;;;;;0.10;0.10;;;;;;;17.29;84.38;100964.56;5026708;28;20052;-88
2021/07/12 01:09:30;;;;;;;0.20;0.20;;;;;;;17.20;84.86;100961.81;5043478;28;20055;-89
2021/07/12 01:12:08;;;;;;;0.20;0.20;;;;;;;17.02;85.58;100955.41;5031324;28;20052;-88
2021/07/12 01:14:49;;;;;;;0.10;0.10;;;;;;;16.95;86.19;100960.56;5030519;28;20056;-89
2021/07/12 01:17:53;;;;;;;0.17;0.17;;;;;;;16.91;86.78;100967.81;5022660;28;20048;-89
2021/07/12 01:21:02;;;;;;;0.20;0.20;;;;;;;16.82;86.70;100956.72;5051943;28;20055;-87
2021/07/12 01:24:15;;;;;;;0.10;0.10;;;;;;;16.89;85.49;100945.31;5039944;28;20045;-87
2021/07/12 01:27:27;;;;;;;0.10;0.10;;;;;;;16.93;86.21;100963.63;5027303;28;20061;-88
2021/07/12 01:30:17;;;;;;;0.10;0.10;;;;;;;17.11;85.19;100960.94;5048155;28;20052;-88
2021/07/12 01:33:04;;;;;;;0.20;0.20;;;;;;;17.08;85.50;100956.91;5028167;28;20053;-89
2021/07/12 01:35:53;;;;;;;0.20;0.20;;;;;;;17.11;85.41;100952.69;5029214;28;20049;-88
2021/07/12 01:38:41;;;;;;;0.20;0.20;;;;;;;17.17;84.88;100952.25;5023467;28;20053;-87
2021/07/12 01:41:21;;;;;;;0.10;0.10;;;;;;;17.20;84.42;100942.53;5023347;28;20056;-87
2021/07/12 01:44:00;;;;;;;0.20;0.20;;;;;;;16.98;86.08;100946.19;5031758;28;20052;-88
2021/07/12 01:46:40;;;;;;;0.13;0.13;;;;;;;17.00;85.47;100947.50;5024288;28;20056;-89
2021/07/12 01:49:25;;;;;;;0.10;0.10;;;;;;;16.95;85.78;100955.06;5023445;28;20053;-88
2021/07/12 01:52:06;;;;;;;0.15;0.15;;;;;;;16.80;86.71;100946.06;5030065;28;20052;-88
2021/07/12 01:54:50;;;;;;;0.20;0.20;;;;;;;16.87;86.12;100940.13;5045311;28;20057;-86
2021/07/12 01:57:32;;;;;;;0.10;0.10;;;;;;;16.58;87.39;100921.38;5033954;28;20425;-89
2021/07/12 02:00:09;;;;;;;0.15;0.15;;;;;;;16.65;86.87;100933.56;5042832;28;20042;-88
2021/07/12 02:02:53;;;;;;;0.10;0.10;;;;;;;16.62;87.19;100930.63;5049949;28;20537;-88
2021/07/12 02:05:36;;;;;;;0.20;0.20;;;;;;;16.64;86.96;100928.34;5030080;28;20053;-88
2021/07/12 02:08:15;;;;;;;0.20;0.20;;;;;;;16.59;87.45;100936.75;5029617;28;20060;-88
2021/07/12 02:10:52;;;;;;;0.10;0.10;;;;;;;16.49;87.82;100938.63;5035462;28;20045;-87
2021/07/12 02:13:36;;;;;;;0.20;0.20;;;;;;;16.50;87.92;100933.94;5028141;28;20056;-88
2021/07/12 02:16:15;;;;;;;0.20;0.20;;;;;;;16.55;87.49;100936.56;5033417;28;20064;-88
2021/07/12 02:18:51;;;;;;;0.13;0.13;;;;;;;16.50;87.92;100928.44;5035448;28;20132;-87
2021/07/12 02:21:40;;;;;;;0.10;0.10;;;;;;;16.77;85.96;100910.97;5041896;28;20072;-87
2021/07/12 02:24:26;;;;;;;0.10;0.10;;;;;;;16.58;87.15;100908.44;5026342;28;20053;-88
2021/07/12 02:26:56;;;;;;;0.10;0.10;;;;;;;16.47;87.98;100909.84;5024365;28;20080;-87
2021/07/12 02:29:32;;;;;;;0.10;0.10;;;;;;;16.31;88.27;100903.94;5032454;28;20060;-87
2021/07/12 02:32:07;;;;;;;0.10;0.10;;;;;;;16.29;88.09;100903.44;5032779;28;20057;-88
2021/07/12 02:34:42;;;;;;;0.10;0.10;;;;;;;16.21;88.50;100910.47;5030572;28;20049;-88
2021/07/12 02:37:14;;;;;;;0.10;0.10;;;;;;;16.17;88.56;100914.16;5039783;28;20067;-87
2021/07/12 02:39:49;;;;;;;0.20;0.20;;;;;;;16.05;88.46;100901.00;5041969;28;20052;-88
2021/07/12 02:42:19;;;;;;;0.20;0.20;;;;;;;16.04;89.23;100905.66;5028722;28;20049;-88
2021/07/12 02:44:55;;;;;;;0.10;0.10;;;;;;;16.07;88.94;100913.28;5044716;28;20048;-88
2021/07/12 02:47:28;;;;;;;0.10;0.10;;;;;;;16.04;89.13;100905.66;5028566;28;20045;-88
2021/07/12 02:50:02;;;;;;;0.00;0.00;;;;;;;16.08;89.20;100897.63;5032953;28;20037;-88
2021/07/12 02:52:40;;;;;;;0.00;0.00;;;;;;;16.01;88.98;100889.03;5048676;28;20366;-88
2021/07/12 02:55:14;;;;;;;0.00;0.00;;;;;;;16.03;88.87;100898.56;5028706;28;20053;-88
2021/07/12 02:57:47;;;;;;;0.20;0.20;;;;;;;16.04;89.26;100902.94;5044999;28;20075;-88
2021/07/12 03:00:24;;;;;;;0.20;0.20;;;;;;;15.98;88.73;100890.47;5040836;28;20046;-87
2021/07/12 03:02:58;;;;;;;0.20;0.20;;;;;;;15.96;89.59;100900.94;5030665;28;20497;-87
2021/07/12 03:05:32;;;;;;;0.10;0.10;;;;;;;15.87;89.51;100898.13;5031946;28;20401;-87
2021/07/12 03:08:12;;;;;;;0.20;0.20;;;;;;;15.90;89.55;100911.22;5032904;28;20516;-88
2021/07/12 03:10:52;;;;;;;0.20;0.20;;;;;;;15.81;89.72;100891.13;5029604;28;20390;-84
2021/07/12 03:13:35;;;;;;;0.10;0.10;;;;;;;15.85;89.72;100894.88;5030141;28;20049;-87
2021/07/12 03:16:06;;;;;;;0.10;0.10;;;;;;;15.85;89.32;100896.81;5018632;28;20070;-89
2021/07/12 03:18:45;;;;;;;0.10;0.10;;;;;;;15.73;90.15;100884.41;5042697;28;20417;-88
2021/07/12 03:21:24;;;;;;;0.10;0.10;;;;;;;15.83;89.47;100888.88;5033312;28;20046;-88
2021/07/12 03:24:03;;;;;;;0.17;0.17;;;;;;;15.81;89.66;100896.59;5049903;28;20056;-87
2021/07/12 03:26:44;;;;;;;0.20;0.20;;;;;;;15.85;90.18;100894.06;5029655;28;20059;-88
2021/07/12 03:29:19;;;;;;;0.20;0.20;;;;;;;15.85;89.69;100896.81;5035003;28;20049;-87
2021/07/12 03:31:52;;;;;;;0.20;0.20;;;;;;;15.80;90.53;100889.50;5031558;28;20041;-88
2021/07/12 03:34:28;;;;;;;0.10;0.10;;;;;;;15.81;89.98;100891.13;5043094;28;20486;-88
2021/07/12 03:37:02;;;;;;;0.20;0.20;;;;;;;15.87;89.86;100895.38;5041789;28;20045;-89
2021/07/12 03:39:38;;;;;;;0.10;0.10;;;;;;;15.91;90.26;100893.63;5036678;28;20060;-87
2021/07/12 03:42:07;;;;;;;0.10;0.10;;;;;;;16.13;88.92;100889.28;5030279;28;20057;-89
2021/07/12 03:44:41;;;;;;;0.10;0.10;;;;;;;16.09;89.29;100893.78;5032250;28;20044;-89
2021/07/12 03:47:28;;;;;;;0.10;0.10;;;;;;;16.02;89.94;100887.88;5036807;28;20107;-87
2021/07/12 03:50:10;;;;;;;0.10;0.10;;;;;;;16.02;89.92;100885.16;5026226;28;20064;-88
2021/07/12 03:52:45;;;;;;;0.20;0.20;;;;;;;16.03;90.00;100886.78;5040133;28;20060;-88
2021/07/12 03:55:22;;;;;;;0.20;0.20;;;;;;;15.95;90.13;100880.09;5046680;28;20049;-88
2021/07/12 03:57:52;;;;;;;0.10;0.10;;;;;;;15.96;90.39;100871.56;5046511;28;20577;-88
2021/07/12 04:00:27;;;;;;;0.10;0.10;;;;;;;16.01;89.99;100872.56;5040993;28;20064;-89
2021/07/12 04:03:00;;;;;;;0.20;0.20;;;;;;;16.00;90.34;100879.97;5041488;28;20044;-87
2021/07/12 04:05:38;;;;;;;0.20;0.20;;;;;;;16.00;89.94;100877.22;5054217;28;20052;-88
2021/07/12 04:08:11;;;;;;;0.10;0.10;;;;;;;15.99;90.35;100881.09;5028342;28;20059;-88
2021/07/12 04:10:46;;;;;;;0.10;0.10;;;;;;;15.94;90.62;100868.31;5053209;28;20064;-87
2021/07/12 04:13:21;;;;;;;0.20;0.20;;;;;;;16.05;89.67;100863.38;5043381;28;20075;-89
2021/07/12 04:15:55;;;;;;;0.10;0.10;;;;;;;16.16;89.62;100869.44;5051829;28;20053;-87
2021/07/12 04:18:29;;;;;;;0.20;0.20;;;;;;;16.25;89.39;100867.53;5050610;28;20044;-88
2021/07/12 04:21:03;;;;;;;0.10;0.10;;;;;;;16.22;89.57;100862.69;5029152;28;20528;-88
2021/07/12 04:23:36;;;;;;;0.10;0.10;;;;;;;16.21;90.54;100865.75;5054172;28;20040;-88
2021/07/12 04:26:11;;;;;;;0.20;0.20;;;;;;;16.29;89.73;100864.97;5030208;28;20053;-88
2021/07/12 04:28:40;;;;;;;0.20;0.20;;;;;;;16.30;89.85;100861.91;5034745;28;20049;-89
2021/07/12 04:31:14;;;;;;;0.10;0.10;;;;;;;16.46;89.01;100864.25;5031901;28;20049;-87
2021/07/12 04:33:49;;;;;;;0.10;0.10;;;;;;;16.40;89.71;100858.09;5036070;28;20041;-89
2021/07/12 04:36:17;;;;;;;0.15;0.15;;;;;;;16.40;89.43;100863.59;5042390;28;20508;-88
2021/07/12 04:38:50;;;;;;;0.20;0.20;;;;;;;16.39;89.95;100872.13;5048132;28;20033;-89
2021/07/12 04:41:20;;;;;;;0.10;0.10;;;;;;;16.44;90.32;100869.28;5040757;28;20049;-88
2021/07/12 04:43:48;;;;;;;0.10;0.10;;;;;;;16.63;89.03;100860.81;5047305;28;20053;-88
2021/07/12 04:46:21;;;;;;;0.10;0.10;;;;;;;16.55;89.93;100876.13;5024549;28;20045;-88
2021/07/12 04:48:55;;;;;;;0.10;0.10;;;;;;;16.56;89.72;100858.50;5043341;28;20045;-89
2021/07/12 04:51:28;;;;;;;0.17;0.17;;;;;;;16.62;89.55;100857.22;5047199;28;20049;-89
2021/07/12 04:54:01;;;;;;;0.20;0.20;;;;;;;16.78;89.18;100859.59;5051680;28;20063;-88
2021/07/12 04:56:36;;;;;;;0.10;0.10;;;;;;;16.95;88.29;100878.91;5041563;28;20048;-86
2021/07/12 04:59:10;;;;;;;0.10;0.10;;;;;;;16.91;88.67;100866.13;5037573;28;20042;-90
2021/07/12 05:01:40;;;;;;;0.20;0.20;;;;;;;17.14;87.76;100873.13;5041264;28;20417;-89
2021/07/12 05:04:14;;;;;;;0.10;0.10;;;;;;;17.23;86.49;100861.34;5039486;28;20055;-87
2021/07/12 05:06:42;;;;;;;0.10;0.10;;;;;;;17.21;87.77;100867.16;5047903;28;20056;-88
2021/07/12 05:09:15;;;;;;;0.10;0.10;;;;;;;17.50;85.69;100866.56;5022967;28;20061;-88
2021/07/12 05:11:50;;;;;;;0.13;0.13;;;;;;;17.52;86.27;100860.72;5043141;28;20052;-89
2021/07/12 05:14:25;;;;;;;0.20;0.20;;;;;;;17.76;84.72;100859.44;5052192;28;20051;-87
2021/07/12 05:16:59;;;;;;;0.20;0.20;;;;;;;19.44;79.85;100861.31;5051468;28;20048;-88
2021/07/12 05:19:32;;;;;;;0.20;0.20;;;;;;;20.73;75.80;100852.13;5043495;28;20045;-86
2021/07/12 05:22:05;;;;;;;0.20;0.20;;;;;;;21.28;69.96;100853.84;5040298;28;20612;-87
2021/07/12 05:24:39;;;;;;;0.30;0.30;;;;;;;21.85;68.96;100852.78;5043073;28;20060;-88
2021/07/12 05:27:13;;;;;;;0.20;0.20;;;;;;;22.46;66.68;100850.06;5049410;28;20041;-88
2021/07/12 05:29:47;;;;;;;0.20;0.20;;;;;;;22.85;67.75;100839.13;5049242;28;20055;-88
2021/07/12 05:32:20;;;;;;;0.20;0.20;;;;;;;23.09;66.52;100847.22;5041734;28;20067;-88
2021/07/12 05:34:53;;;;;;;0.20;0.20;;;;;;;23.00;66.42;100843.03;5030153;28;20049;-88
2021/07/12 05:37:26;;;;;;;0.20;0.20;;;;;;;22.86;63.95;100846.28;5023111;28;20173;-87
2021/07/12 05:40:00;;;;;;;0.20;0.20;;;;;;;22.99;64.27;100841.44;5029085;28;20063;-88
2021/07/12 05:42:35;;;;;;;0.20;0.20;;;;;;;22.93;63.94;100836.16;5012768;28;20048;-87
2021/07/12 05:45:10;;;;;;;0.10;0.10;;;;;;;23.42;65.49;100843.22;5022755;28;20830;-87
2021/07/12 05:47:38;;;;;;;0.10;0.10;;;;;;;22.68;65.55;100849.44;5037174;28;20053;-87
2021/07/12 05:50:14;;;;;;;0.10;0.10;;;;;;;21.98;68.05;100847.97;5050602;28;20044;-87
2021/07/12 05:52:47;;;;;;;0.10;0.10;;;;;;;20.95;70.40;100854.78;5040488;28;20042;-88
2021/07/12 05:55:20;;;;;;;0.20;0.20;;;;;;;20.77;73.13;100863.34;5046780;28;20045;-88
2021/07/12 05:57:55;;;;;;;0.10;0.10;;;;;;;20.94;72.85;100856.75;5045327;28;20052;-88
2021/07/12 06:00:24;;;;;;;0.20;0.20;;;;;;;20.82;75.70;100859.53;5029456;28;20815;-88
2021/07/12 06:02:52;;;;;;;0.10;0.10;;;;;;;20.91;75.33;100857.47;5042732;28;20037;-89
2021/07/12 06:05:25;;;;;;;0.10;0.10;;;;;;;20.49;75.28;100843.78;5048780;28;20053;-88
2021/07/12 06:07:59;;;;;;;0.10;0.10;;;;;;;19.99;77.46;100845.63;5035784;28;20061;-87
2021/07/12 06:10:28;;;;;;;0.10;0.10;;;;;;;20.04;78.51;100853.72;5030420;28;20524;-88
2021/07/12 06:13:03;;;;;;;0.10;0.10;;;;;;;20.38;75.18;100857.25;5035742;28;20855;-88
2021/07/12 06:15:36;;;;;;;0.10;0.10;;;;;;;20.25;74.78;100858.38;5025953;28;20060;-86
2021/07/12 06:18:12;;;;;;;0.10;0.10;;;;;;;20.24;74.59;100856.75;5029906;28;20425;-87
2021/07/12 06:20:45;;;;;;;0.10;0.10;;;;;;;20.37;76.82;100856.44;5033031;28;20136;-87
2021/07/12 06:23:18;;;;;;;0.13;0.13;;;;;;;20.36;75.54;100842.97;5024790;28;20732;-87
2021/07/12 06:25:52;;;;;;;0.10;0.10;;;;;;;20.35;73.83;100849.63;5035458;28;20417;-87
2021/07/12 06:28:26;;;;;;;0.10;0.10;;;;;;;20.26;75.00;100846.16;5050276;28;20047;-86
2021/07/12 06:31:00;;;;;;;0.10;0.10;;;;;;;20.39;75.56;100842.28;5033825;28;20057;-85
2021/07/12 06:33:31;;;;;;;0.10;0.10;;;;;;;20.30;76.29;100849.84;5045115;28;20045;-87
2021/07/12 06:36:06;;;;;;;0.10;0.10;;;;;;;20.13;75.92;100853.63;5055049;28;20047;-87
2021/07/12 06:38:34;;;;;;;0.10;0.10;;;;;;;20.12;76.19;100849.22;5047204;28;20044;-86
2021/07/12 06:41:08;;;;;;;0.03;0.03;;;;;;;19.96;76.45;100849.06;5050639;28;20397;-85
2021/07/12 06:43:43;;;;;;;0.10;0.10;;;;;;;19.82;76.39;100844.66;5046753;28;20466;-87
2021/07/12 06:46:20;;;;;;;0.20;0.20;;;;;;;19.82;77.79;100852.94;5034087;28;20405;-86
2021/07/12 06:48:53;;;;;;;0.10;0.10;;;;;;;19.97;75.85;100850.66;5049796;28;20417;-87
2021/07/12 06:51:27;;;;;;;0.10;0.10;;;;;;;20.06;78.20;100848.63;5048734;28;20048;-85
2021/07/12 06:54:00;;;;;;;0.17;0.17;;;;;;;19.98;78.58;100853.13;5031308;28;20034;-85
2021/07/12 06:56:36;;;;;;;0.10;0.10;;;;;;;19.89;79.39;100846.88;5049023;28;20535;-84
2021/07/12 06:59:12;;;;;;;0.20;0.20;;;;;;;19.95;79.23;100845.50;5043846;28;20441;-85
2021/07/12 07:01:46;;;;;;;0.10;0.10;;;;;;;19.98;78.93;100846.78;5045755;28;20048;-85
2021/07/12 07:04:19;;;;;;;0.10;0.10;;;;;;;20.11;75.25;100847.63;5036514;28;20051;-86
2021/07/12 07:06:52;;;;;;;0.10;0.10;;;;;;;20.15;76.30;100841.06;5027743;28;21262;-86
2021/07/12 07:09:31;;;;;;;0.10;0.10;;;;;;;20.33;80.81;100844.47;5026208;28;20477;-85
2021/07/12 07:12:05;;;;;;;0.10;0.10;;;;;;;20.31;79.12;100835.69;5026722;28;20057;-85
2021/07/12 07:14:48;;;;;;;0.10;0.10;;;;;;;20.62;77.86;100825.25;5050093;28;20381;-85
2021/07/12 07:17:21;;;;;;;0.10;0.10;;;;;;;20.72;76.67;100827.59;5026039;28;20614;-84
2021/07/12 07:19:54;;;;;;;0.10;0.10;;;;;;;20.69;78.71;100822.78;5048202;28;20053;-85
2021/07/12 07:22:23;;;;;;;0.10;0.10;;;;;;;20.70;77.67;100827.13;5039041;28;20045;-85
2021/07/12 07:24:58;;;;;;;0.10;0.10;;;;;;;20.64;80.09;100828.50;5040613;28;20045;-85
2021/07/12 07:27:32;;;;;;;0.10;0.10;;;;;;;20.79;77.64;100815.97;5021657;28;20052;-84
2021/07/12 07:30:08;;;;;;;0.10;0.10;;;;;;;20.85;76.33;100811.78;5039302;28;20059;-83
2021/07/12 07:32:43;;;;;;;0.10;0.10;;;;;;;20.79;76.39;100814.00;5041559;28;20060;-85
2021/07/12 07:35:17;;;;;;;0.13;0.10;;;;;;;20.98;78.81;100820.91;5044720;28;20052;-85
2021/07/12 07:37:46;;;;;;;0.10;0.10;;;;;;;20.96;76.58;100809.38;5017659;28;20060;-85
2021/07/12 07:40:22;;;;;;;0.10;0.10;;;;;;;21.29;73.22;100811.97;5020378;28;20048;-86
2021/07/12 07:42:55;;;;;;;0.10;0.10;;;;;;;21.21;76.94;100810.97;5038376;28;20040;-85
2021/07/12 07:45:31;;;;;;;0.10;0.10;;;;;;;21.22;76.32;100795.94;5042808;28;20429;-86
2021/07/12 07:48:07;;;;;;;0.10;0.10;;;;;;;21.38;76.15;100798.78;5046463;28;20045;-85
2021/07/12 07:50:42;;;;;;;0.10;0.10;;;;;;;21.51;78.07;100804.28;5043146;28;20075;-85
2021/07/12 07:53:16;;;;;;;0.10;0.10;;;;;;;21.57;77.63;100797.38;5018981;28;20082;-85
2021/07/12 07:55:50;;;;;;;0.10;0.10;;;;;;;21.84;72.21;100778.34;5036981;28;20048;-85
2021/07/12 07:58:23;;;;;;;0.10;0.10;;;;;;;21.86;73.76;100790.69;5043632;28;20053;-85
2021/07/12 08:00:58;;;;;;;0.10;0.10;;;;;;;22.03;69.51;100772.91;5023307;28;20063;-86
2021/07/12 08:03:31;;;;;;;0.10;0.10;;;;;;;22.14;74.03;100786.22;5025294;28;20067;-86
2021/07/12 08:06:06;;;;;;;0.10;0.10;;;;;;;22.39;69.74;100786.91;5029942;28;20060;-85
2021/07/12 08:08:35;;;;;;;0.10;0.10;;;;;;;22.29;76.75;100787.41;5037822;28;20682;-85
2021/07/12 08:11:12;;;;;;;0.10;0.10;;;;;;;22.37;74.53;100781.72;5034438;28;20829;-84
2021/07/12 08:13:51;;;;;;;0.10;0.10;;;;;;;22.47;71.03;100771.25;5036274;28;20045;-86
2021/07/12 08:16:26;;;;;;;0.10;0.10;;;;;;;22.63;74.17;100779.56;5034336;28;20055;-86
2021/07/12 08:19:00;;;;;;;0.10;0.10;;;;;;;22.68;73.69;100787.59;5018624;28;21525;-86
2021/07/12 08:21:28;;;;;;;0.10;0.10;;;;;;;22.69;74.44;100786.41;5030974;28;20048;-85
2021/07/12 08:24:01;;;;;;;0.10;0.10;;;;;;;22.85;67.59;100778.09;5036043;28;20751;-86
2021/07/12 08:26:35;;;;;;;0.10;0.10;;;;;;;22.90;69.81;100780.59;5014088;28;20053;-87
2021/07/12 08:29:09;;;;;;;0.10;0.10;;;;;;;23.08;70.29;100787.31;5020135;28;20061;-85
2021/07/12 08:31:47;;;;;;;0.10;0.10;;;;;;;23.24;71.59;100787.31;5018773;28;20696;-85
2021/07/12 08:34:16;;;;;;;0.10;0.10;;;;;;;23.12;67.48;100779.13;5030338;28;20041;-85
2021/07/12 08:36:53;;;;;;;0.15;0.15;;;;;;;23.20;66.43;100794.75;5013147;28;20053;-86
2021/07/12 08:39:26;;;;;;;0.10;0.10;;;;;;;23.30;70.58;100784.22;5011276;28;20067;-85
2021/07/12 08:42:00;;;;;;;0.10;0.10;;;;;;;23.32;69.30;100779.94;5016491;28;20057;-85
2021/07/12 08:44:35;;;;;;;0.10;0.10;;;;;;;23.59;68.59;100782.88;5017213;28;21328;-86
2021/07/12 08:47:13;;;;;;;0.10;0.10;;;;;;;23.60;64.03;100784.44;5036769;28;20068;-84
2021/07/12 08:49:46;;;;;;;0.10;0.10;;;;;;;23.54;64.73;100788.72;5036684;28;20139;-84
2021/07/12 08:52:22;;;;;;;0.10;0.10;;;;;;;23.67;64.76;100778.22;5021250;28;20467;-85
2021/07/12 08:54:55;;;;;;;0.10;0.10;;;;;;;23.82;65.78;100776.53;5038505;28;20493;-86
2021/07/12 08:57:26;;;;;;;0.10;0.10;;;;;;;23.82;63.28;100777.31;5036227;28;20059;-85
2021/07/12 08:59:59;;;;;;;0.10;0.10;;;;;;;24.02;64.71;100771.78;5023351;28;20045;-85
2021/07/12 09:02:37;;;;;;;0.10;0.10;;;;;;;24.00;67.42;100772.16;5030564;28;20064;-85
2021/07/12 09:05:08;;;;;;;0.10;0.10;;;;;;;23.95;65.68;100761.34;5022107;28;21385;-86
2021/07/12 09:07:42;;;;;;;0.10;0.10;;;;;;;24.05;68.96;100771.03;5012368;28;20059;-85
2021/07/12 09:10:21;;;;;;;0.10;0.10;;;;;;;24.10;64.22;100767.97;5014965;28;20416;-84
2021/07/12 09:12:55;;;;;;;0.15;0.15;;;;;;;24.08;66.06;100770.28;5033837;28;20138;-86
2021/07/12 09:15:29;;;;;;;0.10;0.10;;;;;;;24.25;63.26;100775.38;5039310;28;20059;-85
2021/07/12 09:18:15;;;;;;;0.20;0.20;;;;;;;24.57;64.45;100771.50;5034946;28;20059;-84
2021/07/12 09:20:50;;;;;;;0.20;0.20;;;;;;;24.38;65.86;100759.28;5034084;28;20057;-85
2021/07/12 09:23:23;;;;;;;0.10;0.10;;;;;;;24.45;66.31;100747.47;5032567;28;20424;-85
2021/07/12 09:26:02;;;;;;;0.10;0.10;;;;;;;24.72;60.83;100758.63;5017491;28;20789;-84
2021/07/12 09:28:41;;;;;;;0.10;0.10;;;;;;;24.77;64.59;100758.31;5014192;28;20893;-85
2021/07/12 09:31:25;;;;;;;0.20;0.20;;;;;;;24.80;61.82;100743.63;5034071;28;20049;-85
2021/07/12 09:34:01;;;;;;;0.10;0.10;;;;;;;24.53;65.71;100740.84;5028715;28;20574;-85
2021/07/12 09:36:35;;;;;;;0.10;0.10;;;;;;;24.40;63.30;100747.78;5027938;28;20051;-85
2021/07/12 09:39:22;;;;;;;0.20;0.20;;;;;;;24.54;62.80;100738.84;5003572;28;20057;-84
2021/07/12 09:41:59;;;;;;;0.10;0.10;;;;;;;24.76;62.80;100734.44;5032781;28;20052;-84
2021/07/12 09:44:33;;;;;;;;;;;;;;;24.89;64.85;100740.59;5030024;28;20060;-85
2021/07/12 09:47:12;;;;;;;0.10;0.10;;;;;;;25.13;59.04;100731.78;5012280;28;19939;-86
2021/07/12 09:49:48;;;;;;;0.10;0.10;;;;;;;24.53;64.50;100732.50;5032477;28;20057;-85
2021/07/12 09:52:22;;;;;;;0.10;0.10;;;;;;;24.23;60.44;100741.56;5011377;28;20494;-85
2021/07/12 09:54:55;;;;;;;0.13;0.13;;;;;;;23.93;62.30;100738.66;5005205;28;20045;-86
2021/07/12 09:57:28;;;;;;;0.10;0.10;;;;;;;23.73;62.55;100737.88;5013749;28;20057;-84
2021/07/12 10:00:07;;;;;;;0.10;0.10;;;;;;;24.17;63.01;100728.31;5030544;28;20045;-85
2021/07/12 10:02:42;;;;;;;0.10;0.10;;;;;;;24.35;60.30;100721.09;5033329;28;20532;-84
2021/07/12 10:05:17;;;;;;;0.10;0.10;;;;;;;25.08;60.07;100717.34;5011186;28;20405;-85
2021/07/12 10:07:51;;;;;;;0.10;0.10;;;;;;;25.26;56.67;100720.38;5033363;28;20047;-85
2021/07/12 10:10:20;;;;;;;0.10;0.10;;;;;;;25.29;58.07;100725.19;5036131;28;20060;-85
2021/07/12 10:12:54;;;;;;;0.10;0.10;;;;;;;25.50;61.24;100718.28;5008889;28;20049;-86
2021/07/12 10:15:22;;;;;;;0.10;0.10;;;;;;;25.41;62.42;100710.22;5027746;28;20060;-86
2021/07/12 10:17:57;;;;;;;0.10;0.10;;;;;;;25.25;59.49;100702.06;5029978;28;20056;-86
2021/07/12 10:20:28;;;;;;;0.10;0.10;;;;;;;25.37;60.99;100685.13;5032550;28;20057;-87
2021/07/12 10:23:03;;;;;;;0.10;0.10;;;;;;;25.28;55.30;100695.72;5016853;28;20528;-86
2021/07/12 10:25:45;;;;;;;0.10;0.10;;;;;;;25.41;60.88;100701.84;5032669;28;20060;-84
2021/07/12 10:28:37;;;;;;;0.10;0.10;;;;;;;25.53;61.46;100696.00;5032429;28;20045;-86
2021/07/12 10:31:19;;;;;;;0.10;0.10;;;;;;;24.95;61.00;100687.00;5005953;28;20057;-85
2021/07/12 10:33:48;;;;;;;0.10;0.10;;;;;;;24.76;59.78;100682.38;5035226;28;20110;-85
2021/07/12 10:36:38;;;;;;;0.10;0.10;;;;;;;25.18;60.52;100669.34;5031866;28;20056;-85
2021/07/12 10:39:12;;;;;;;0.10;0.10;;;;;;;25.74;60.69;100667.56;5017139;28;20060;-85
2021/07/12 10:41:49;;;;;;;0.10;0.10;;;;;;;25.35;59.40;100678.31;5011866;28;20061;-86
2021/07/12 10:44:17;;;;;;;0.10;0.10;;;;;;;25.34;58.90;100673.94;5038900;28;20511;-85
2021/07/12 10:46:52;;;;;;;0.10;0.10;;;;;;;25.44;58.18;100676.84;5039277;28;20056;-85
2021/07/12 10:49:39;;;;;;;0.10;0.10;;;;;;;25.65;56.64;100669.88;5019341;28;20190;-87
2021/07/12 10:52:47;;;;;;;0.10;0.10;;;;;;;25.48;57.92;100664.91;5038178;28;20048;-86
2021/07/12 10:55:30;;;;;;;0.10;0.10;;;;;;;25.10;54.65;100673.25;5034992;28;20045;-84
2021/07/12 10:58:40;;;;;;;0.10;0.10;;;;;;;24.45;56.32;100666.81;5018730;28;20148;-86
2021/07/12 11:01:38;;;;;;;0.10;0.10;;;;;;;24.47;60.94;100667.22;4989569;28;20079;-85
2021/07/12 11:04:47;;;;;;;0.10;0.10;;;;;;;24.75;56.39;100672.41;5017456;28;20066;-86
2021/07/12 11:07:41;;;;;;;0.10;0.10;;;;;;;24.46;61.80;100665.63;4933799;28;20062;-85
2021/07/12 11:10:25;;;;;;;0.10;0.10;;;;;;;25.21;54.20;100663.03;4914938;28;20066;-84
2021/07/12 11:13:02;;;;;;;0.10;0.10;;;;;;;25.15;54.02;100656.19;5008088;28;20061;-87
2021/07/12 11:15:37;;;;;;;0.10;0.10;;;;;;;25.03;58.61;100657.25;5025904;28;20086;-86
2021/07/12 11:18:22;;;;;;;0.20;0.20;;;;;;;25.28;58.08;100653.94;5033995;28;20048;-86
2021/07/12 11:20:59;;;;;;;0.10;0.10;;;;;;;25.18;58.87;100646.28;5015285;28;20065;-85
2021/07/12 11:23:55;;;;;;;0.10;0.10;;;;;;;25.48;60.60;100648.19;5018581;28;20053;-86
2021/07/12 11:27:05;;;;;;;0.10;0.10;;;;;;;25.45;59.56;100639.44;5013739;28;20102;-87
2021/07/12 11:29:39;;;;;;;0.10;0.10;;;;;;;25.54;56.16;100639.13;5040548;28;20505;-87
2021/07/12 11:32:14;;;;;;;0.10;0.10;;;;;;;25.56;55.92;100647.91;5046834;28;20053;-85
2021/07/12 11:34:55;;;;;;;0.10;0.10;;;;;;;25.43;58.90;100652.94;5013570;28;20597;-85
2021/07/12 11:37:28;;;;;;;0.10;0.10;;;;;;;25.51;52.49;100650.22;5031836;28;20417;-85
2021/07/12 11:40:06;;;;;;;0.10;0.10;;;;;;;25.52;56.07;100643.47;5019273;28;20063;-85
2021/07/12 11:42:42;;;;;;;0.10;0.10;;;;;;;25.70;53.98;100636.09;5029760;28;20045;-86
2021/07/12 11:45:17;;;;;;;0.10;0.10;;;;;;;25.93;53.15;100641.44;5011264;28;20710;-84
2021/07/12 11:47:55;;;;;;;0.10;0.10;;;;;;;26.14;57.20;100623.28;5012422;28;20052;-84
2021/07/12 11:50:31;;;;;;;0.10;0.10;;;;;;;26.21;59.28;100628.09;5032566;28;20937;-85
2021/07/12 11:53:07;;;;;;;0.10;0.10;;;;;;;25.93;55.45;100638.63;5012885;28;20061;-86
2021/07/12 11:55:44;;;;;;;0.10;0.10;;;;;;;25.40;59.47;100642.56;5012503;28;21316;-87
2021/07/12 11:58:18;;;;;;;;;;;;;;;25.16;54.14;100637.50;5032442;28;20052;-86
2021/07/12 12:00:54;;;;;;;0.10;0.10;;;;;;;24.91;56.21;100636.03;5030989;28;20318;-86
2021/07/12 12:03:29;;;;;;;0.10;0.10;;;;;;;24.78;53.47;100629.13;5011082;28;20056;-86
2021/07/12 12:05:58;;;;;;;0.10;0.10;;;;;;;24.83;54.44;100625.19;4988026;28;20060;-84
2021/07/12 12:08:31;;;;;;;0.10;0.10;;;;;;;24.75;54.61;100627.88;5015264;28;20486;-85